Columbus, Ohio
Traffic Map
Current Weather Conditions
Columbus, Ohio
Overcast
Overcast
12°
Feels Like: 12°
Wind Chill: 12° Ceiling: 18000
Heat Index: 12° Visibility: 10mi
Dew Point: Wind: 0mph
Humidity: 57% Direction: ° ()
Pressure: 30.04in Gusts: 0mph
Raw Report DataKCMH 211351Z 00000KT 10SM SCT130 OVC180 12/04 A3004 RMK AO2 SLP174 T01220039
Traffic Incident Summary
Active as of:
Severity:
Category:
InformationThere was an issue retrieving the traffic information for this location. Please try a different location or try again shortly.
Advertisements
Track Severe Weather on mobile